createdAt,value
2022-11-12T00:00:35.532Z,100.00
2022-11-12T00:05:56.647Z,100.00
2022-11-12T00:11:17.739Z,100.00
2022-11-12T00:16:38.924Z,100.00
2022-11-12T00:21:59.925Z,100.00
2022-11-12T00:27:21.111Z,100.00
2022-11-12T00:32:42.019Z,100.00
2022-11-12T00:38:03.086Z,100.00
2022-11-12T00:43:25.442Z,100.00
2022-11-12T00:48:46.196Z,100.00
2022-11-12T00:54:07.658Z,100.00
2022-11-12T00:59:28.735Z,100.00
2022-11-12T01:04:49.972Z,100.00
2022-11-12T01:10:11.889Z,100.00
2022-11-12T01:15:32.871Z,100.00
2022-11-12T01:20:55.521Z,100.00
2022-11-12T01:26:20.777Z,100.00
2022-11-12T01:31:42.031Z,100.00
2022-11-12T01:37:03.062Z,100.00
2022-11-12T01:42:29.534Z,100.00
2022-11-12T01:47:52.210Z,100.00
2022-11-12T01:53:14.256Z,100.00
2022-11-12T01:58:37.516Z,100.00
2022-11-12T02:03:58.730Z,100.00
2022-11-12T02:09:20.041Z,100.00
2022-11-12T02:14:40.965Z,100.00
2022-11-12T02:20:02.295Z,100.00
2022-11-12T02:25:25.004Z,100.00
2022-11-12T02:30:48.834Z,100.00
2022-11-12T02:36:10.053Z,100.00
2022-11-12T02:41:31.246Z,100.00
2022-11-12T02:46:52.223Z,100.00
2022-11-12T02:52:13.382Z,100.00
2022-11-12T02:57:35.350Z,100.00
2022-11-12T03:02:59.401Z,100.00
2022-11-12T03:08:20.238Z,100.00
2022-11-12T03:13:41.605Z,100.00
2022-11-12T03:19:02.882Z,100.00
2022-11-12T03:24:24.009Z,100.00
2022-11-12T03:29:45.062Z,100.00
2022-11-12T03:35:06.503Z,100.00
2022-11-12T03:40:28.358Z,100.00
2022-11-12T03:45:49.276Z,100.00
2022-11-12T03:51:12.286Z,100.00
2022-11-12T03:56:32.992Z,100.00
2022-11-12T04:01:54.219Z,100.00
2022-11-12T04:07:33.831Z,100.00
2022-11-12T04:13:13.059Z,100.00
2022-11-12T04:18:52.809Z,100.00
2022-11-12T04:24:34.006Z,100.00
2022-11-12T04:30:13.889Z,100.00
2022-11-12T04:35:35.049Z,100.00
2022-11-12T04:41:14.417Z,100.00
2022-11-12T04:46:35.400Z,100.00
2022-11-12T04:52:05.512Z,100.00
2022-11-12T04:57:27.108Z,100.00
2022-11-12T05:02:50.526Z,100.00
2022-11-12T05:08:11.752Z,100.00
2022-11-12T05:13:32.783Z,100.00
2022-11-12T05:18:54.039Z,100.00
2022-11-12T05:24:33.966Z,100.00
2022-11-12T05:29:55.889Z,100.00
2022-11-12T05:35:16.997Z,100.00
2022-11-12T05:40:37.739Z,100.00
2022-11-12T05:45:59.000Z,100.00
2022-11-12T05:51:20.078Z,100.00
2022-11-12T05:56:41.328Z,100.00
2022-11-12T06:02:02.140Z,100.00
2022-11-12T06:07:23.347Z,100.00
2022-11-12T06:12:44.102Z,100.00
2022-11-12T06:18:05.077Z,100.00
2022-11-12T06:23:25.903Z,100.00
2022-11-12T06:28:48.050Z,100.00
2022-11-12T06:34:08.948Z,100.00
2022-11-12T06:39:29.672Z,100.00
2022-11-12T06:44:50.820Z,100.00
2022-11-12T06:50:11.852Z,100.00
2022-11-12T06:55:33.163Z,100.00
2022-11-12T07:00:53.917Z,100.00
2022-11-12T07:06:19.287Z,100.00
2022-11-12T07:11:40.238Z,100.00
2022-11-12T07:17:01.470Z,100.00
2022-11-12T07:22:22.264Z,100.00
2022-11-12T07:27:42.967Z,100.00
2022-11-12T07:33:03.986Z,100.00
2022-11-12T07:38:25.547Z,100.00
2022-11-12T07:43:48.464Z,100.00
2022-11-12T07:49:09.582Z,100.00
2022-11-12T07:54:30.553Z,100.00
2022-11-12T07:59:51.419Z,100.00
2022-11-12T08:05:16.512Z,100.00
2022-11-12T08:10:40.933Z,100.00
2022-11-12T08:16:02.263Z,100.00
2022-11-12T08:21:23.236Z,100.00
2022-11-12T08:26:44.333Z,100.00
2022-11-12T08:32:05.653Z,100.00
2022-11-12T08:37:26.931Z,100.00
2022-11-12T08:42:48.245Z,100.00
2022-11-12T08:48:13.840Z,100.00
2022-11-12T08:53:34.727Z,100.00
2022-11-12T08:58:56.037Z,100.00
2022-11-12T09:04:17.278Z,100.00
2022-11-12T09:09:38.273Z,100.00
2022-11-12T09:15:09.622Z,100.00
2022-11-12T09:20:41.189Z,100.00
2022-11-12T09:26:02.709Z,100.00
2022-11-12T09:31:25.764Z,100.00
2022-11-12T09:36:46.607Z,100.00
2022-11-12T09:42:16.016Z,100.00
2022-11-12T09:47:45.299Z,100.00
2022-11-12T10:42:57.347Z,93.20
2022-11-12T10:48:31.195Z,97.48
2022-11-12T10:53:55.107Z,90.84
2022-11-12T10:59:26.104Z,85.87
2022-11-12T11:04:51.109Z,89.00
2022-11-12T11:10:28.017Z,81.91
2022-11-12T11:16:00.085Z,82.84
2022-11-12T11:21:47.971Z,73.73
2022-11-12T11:27:19.888Z,75.73
2022-11-12T11:32:52.355Z,67.89
2022-11-12T11:38:25.566Z,66.02
2022-11-12T11:44:14.792Z,65.41
2022-11-12T11:50:01.905Z,69.41
2022-11-12T11:55:48.148Z,70.73
2022-11-12T12:01:20.619Z,72.05
2022-11-12T12:07:19.483Z,74.71
2022-11-12T12:13:05.451Z,77.13
2022-11-12T12:18:37.348Z,75.62
2022-11-12T12:24:18.032Z,74.35
2022-11-12T12:29:49.252Z,75.31
2022-11-12T12:35:38.738Z,76.89
2022-11-12T12:41:29.369Z,78.52
2022-11-12T12:46:57.451Z,79.27
2022-11-12T12:52:18.688Z,79.59
2022-11-12T12:57:40.803Z,83.76
2022-11-12T13:03:01.765Z,81.81
2022-11-12T13:08:27.225Z,81.04
2022-11-12T13:13:48.549Z,81.05
2022-11-12T13:19:09.735Z,81.32
2022-11-12T13:25:05.119Z,81.22
2022-11-12T13:30:25.860Z,80.67
2022-11-12T13:35:46.898Z,84.06
2022-11-12T13:41:43.795Z,82.51
2022-11-12T13:47:05.254Z,82.08
2022-11-12T13:52:26.935Z,85.04
2022-11-12T13:57:52.731Z,85.23
2022-11-12T14:03:18.937Z,84.91
2022-11-12T14:09:07.657Z,87.66
2022-11-12T14:15:04.349Z,88.28
2022-11-12T14:20:30.550Z,88.44
2022-11-12T14:25:53.785Z,89.17
2022-11-12T14:31:15.817Z,91.10
2022-11-12T14:36:38.764Z,93.60
2022-11-12T14:42:00.913Z,90.30
2022-11-12T14:47:23.178Z,90.77
2022-11-12T14:52:48.504Z,90.94
2022-11-12T14:58:17.579Z,93.93
2022-11-12T15:03:38.494Z,96.28
2022-11-12T15:09:00.152Z,97.83
2022-11-12T15:14:24.808Z,97.42
2022-11-12T15:19:45.817Z,99.30
2022-11-12T15:25:23.372Z,100.00
2022-11-12T15:31:08.016Z,100.00
2022-11-12T15:36:32.260Z,100.00
2022-11-12T15:42:05.939Z,100.00
2022-11-12T15:47:26.740Z,100.00
2022-11-12T15:52:47.964Z,100.00
2022-11-12T15:58:20.702Z,100.00
2022-11-12T16:03:41.577Z,100.00
2022-11-12T16:09:02.662Z,100.00
2022-11-12T16:14:25.114Z,100.00
2022-11-12T16:19:46.530Z,100.00
2022-11-12T16:25:08.091Z,100.00
2022-11-12T16:30:33.501Z,100.00
2022-11-12T16:35:54.296Z,100.00
2022-11-12T16:41:15.904Z,100.00
2022-11-12T16:46:42.031Z,100.00
2022-11-12T16:52:04.736Z,100.00
2022-11-12T16:57:26.568Z,100.00
2022-11-12T17:02:53.031Z,100.00
2022-11-12T17:08:14.813Z,100.00
2022-11-12T17:13:38.696Z,100.00
2022-11-12T17:19:01.730Z,100.00
2022-11-12T17:24:25.504Z,100.00
2022-11-12T17:29:46.484Z,100.00
2022-11-12T17:35:07.892Z,100.00
2022-11-12T17:40:28.968Z,100.00
2022-11-12T17:45:54.339Z,100.00
2022-11-12T17:51:17.968Z,100.00
2022-11-12T17:56:38.707Z,100.00
2022-11-12T18:02:00.069Z,100.00
2022-11-12T18:07:20.777Z,100.00
2022-11-12T18:12:46.984Z,100.00
2022-11-12T18:18:08.096Z,100.00
2022-11-12T18:23:29.312Z,100.00
2022-11-12T18:29:00.598Z,100.00
2022-11-12T18:34:24.053Z,100.00
2022-11-12T18:39:45.459Z,100.00
2022-11-12T18:45:07.342Z,100.00
2022-11-12T18:50:28.341Z,100.00
2022-11-12T18:55:49.236Z,100.00
2022-11-12T19:01:16.858Z,100.00
2022-11-12T19:06:38.280Z,100.00
2022-11-12T19:11:59.255Z,100.00
2022-11-12T19:17:20.101Z,100.00
2022-11-12T19:22:41.275Z,100.00
2022-11-12T19:28:02.348Z,100.00
2022-11-12T19:33:23.941Z,100.00
2022-11-12T19:38:45.148Z,100.00
2022-11-12T19:44:06.391Z,100.00
2022-11-12T19:49:27.487Z,100.00
2022-11-12T19:54:48.235Z,100.00
2022-11-12T20:00:10.847Z,100.00
2022-11-12T20:05:31.982Z,100.00
2022-11-12T20:10:55.813Z,100.00
2022-11-12T20:16:23.843Z,100.00
2022-11-12T20:21:46.319Z,100.00
2022-11-12T20:27:07.957Z,100.00
2022-11-12T20:32:29.097Z,100.00
2022-11-12T20:37:50.199Z,100.00
2022-11-12T20:43:11.362Z,100.00
2022-11-12T20:48:32.442Z,100.00
2022-11-12T20:53:59.405Z,100.00
2022-11-12T20:59:21.021Z,100.00
2022-11-12T21:04:41.891Z,100.00
2022-11-12T21:10:03.380Z,100.00
2022-11-12T21:15:24.450Z,100.00
2022-11-12T21:20:46.614Z,100.00
2022-11-12T21:26:16.011Z,100.00
2022-11-12T21:31:37.339Z,100.00
2022-11-12T21:36:59.177Z,100.00
2022-11-12T21:42:20.059Z,100.00
2022-11-12T21:47:40.863Z,100.00
2022-11-12T21:53:01.791Z,100.00
2022-11-12T21:58:22.874Z,100.00
2022-11-12T22:03:48.503Z,100.00
2022-11-12T22:09:09.354Z,100.00
2022-11-12T22:14:30.165Z,100.00
2022-11-12T22:19:50.869Z,100.00
2022-11-12T22:25:11.930Z,100.00
2022-11-12T22:30:33.022Z,100.00
2022-11-12T22:35:54.049Z,100.00
2022-11-12T22:41:18.200Z,100.00
2022-11-12T22:46:39.175Z,100.00
2022-11-12T22:52:00.299Z,100.00
2022-11-12T22:57:21.237Z,100.00
2022-11-12T23:02:47.345Z,100.00
2022-11-12T23:08:08.917Z,100.00
2022-11-12T23:13:29.922Z,100.00
2022-11-12T23:18:52.622Z,100.00
2022-11-12T23:24:13.564Z,100.00
2022-11-12T23:29:34.737Z,100.00
2022-11-12T23:34:55.913Z,100.00
2022-11-12T23:40:17.272Z,100.00
2022-11-12T23:45:38.438Z,100.00
2022-11-12T23:51:08.176Z,100.00
2022-11-12T23:56:29.529Z,100.00
